Time;durP1;ratioP1;P1;durP2;ratioP2;P2;SDS_P1;SDS_P2;PMS_P1;PMS_P2;Temp;Humidity;BMP_temperature;BMP_pressure;BME280_temperature;BME280_humidity;BME280_pressure;Samples;Min_cycle;Max_cycle;Signal;HPM_P1;HPM_P2
2022/03/18 00:00:45;;;;;;;2.08;1.15;;;22.10;30.20;;;;;;5044178;28;20017;-47
2022/03/18 00:03:11;;;;;;;1.40;1.00;;;22.10;30.20;;;;;;5050270;28;20040;-49
2022/03/18 00:05:37;;;;;;;1.85;1.05;;;22.10;30.20;;;;;;5050525;28;20033;-47
2022/03/18 00:08:04;;;;;;;2.20;1.40;;;22.10;30.20;;;;;;5052585;28;20031;-47
2022/03/18 00:10:31;;;;;;;2.10;0.95;;;22.10;30.20;;;;;;5046247;28;20029;-48
2022/03/18 00:12:57;;;;;;;1.58;1.10;;;22.10;30.20;;;;;;5051317;28;20086;-47
2022/03/18 00:15:24;;;;;;;1.83;1.00;;;22.10;30.20;;;;;;5045496;28;20390;-46
2022/03/18 00:17:51;;;;;;;2.05;0.93;;;22.10;30.20;;;;;;5052439;28;20031;-47
2022/03/18 00:20:17;;;;;;;1.95;1.10;;;22.10;30.20;;;;;;5047462;28;21796;-48
2022/03/18 00:22:44;;;;;;;2.97;1.20;;;22.10;30.20;;;;;;5050686;28;20076;-45
2022/03/18 00:25:12;;;;;;;2.58;1.20;;;22.10;30.10;;;;;;5049692;28;20103;-47
2022/03/18 00:27:39;;;;;;;2.97;0.98;;;22.00;30.10;;;;;;5045622;28;20408;-49
2022/03/18 00:30:06;;;;;;;1.80;1.00;;;22.00;30.10;;;;;;5028908;28;20021;-51
2022/03/18 00:32:32;;;;;;;2.40;1.00;;;22.00;30.10;;;;;;5051235;28;20164;-46
2022/03/18 00:34:59;;;;;;;2.03;0.95;;;22.00;30.10;;;;;;5037308;28;20101;-49
2022/03/18 00:37:25;;;;;;;2.00;1.15;;;22.00;30.10;;;;;;5033203;28;20040;-48
2022/03/18 00:39:50;;;;;;;2.72;1.58;;;22.00;30.00;;;;;;5033304;28;20033;-48
2022/03/18 00:42:17;;;;;;;1.58;0.93;;;22.00;30.00;;;;;;5034198;28;20052;-47
2022/03/18 00:44:42;;;;;;;1.95;0.90;;;22.00;30.00;;;;;;5033672;28;20032;-51
2022/03/18 00:52:03;;;;;;;2.45;0.90;;;22.00;30.00;;;;;;5034084;28;20026;-51
2022/03/18 00:52:39;;;;;;;2.35;1.15;;;22.00;30.00;;;;;;5032580;28;20029;-50
2022/03/18 00:55:05;;;;;;;2.25;1.00;;;22.00;30.10;;;;;;5031326;28;20018;-47
2022/03/18 00:57:31;;;;;;;2.08;1.02;;;22.00;30.00;;;;;;5037115;28;20033;-48
2022/03/18 00:59:58;;;;;;;2.47;0.95;;;22.00;30.00;;;;;;5050314;28;20108;-46
2022/03/18 01:02:24;;;;;;;1.35;0.75;;;22.00;30.00;;;;;;5034698;28;20402;-47
2022/03/18 01:04:50;;;;;;;2.05;0.82;;;21.90;30.00;;;;;;5046143;28;20014;-47
2022/03/18 01:07:17;;;;;;;1.80;0.80;;;21.90;30.00;;;;;;5032671;28;20409;-49
2022/03/18 01:09:43;;;;;;;1.48;1.02;;;21.90;30.00;;;;;;5032537;28;20044;-49
2022/03/18 01:12:09;;;;;;;1.83;1.02;;;21.90;30.00;;;;;;5034873;28;20029;-49
2022/03/18 01:14:35;;;;;;;2.25;1.13;;;21.90;30.00;;;;;;5050997;28;20079;-49
2022/03/18 01:17:01;;;;;;;1.55;0.90;;;21.90;30.00;;;;;;5049546;28;20021;-47
2022/03/18 01:19:27;;;;;;;1.48;0.88;;;21.90;30.00;;;;;;5034914;28;20084;-46
2022/03/18 01:21:53;;;;;;;2.05;0.90;;;21.90;30.00;;;;;;5050295;28;20120;-47
2022/03/18 01:24:19;;;;;;;1.92;1.05;;;22.00;30.00;;;;;;5041057;28;20464;-50
2022/03/18 01:26:45;;;;;;;1.85;1.00;;;21.90;30.60;;;;;;5045268;28;20021;-47
2022/03/18 01:29:12;;;;;;;1.30;0.70;;;21.90;30.00;;;;;;5047786;28;20499;-50
2022/03/18 01:31:37;;;;;;;1.20;0.80;;;21.90;30.00;;;;;;5049724;28;20417;-48
2022/03/18 01:34:03;;;;;;;1.23;0.73;;;21.90;30.00;;;;;;5051695;28;20022;-48
2022/03/18 01:36:29;;;;;;;1.27;0.80;;;21.90;30.60;;;;;;5042493;28;20033;-51
2022/03/18 01:38:55;;;;;;;2.25;0.98;;;21.90;30.00;;;;;;5039367;28;20045;-48
2022/03/18 01:41:21;;;;;;;1.90;0.90;;;21.90;30.00;;;;;;5051738;28;20071;-47
2022/03/18 01:43:48;;;;;;;1.63;0.75;;;21.90;30.00;;;;;;5039579;28;20037;-50
2022/03/18 01:46:15;;;;;;;1.92;0.98;;;21.90;30.00;;;;;;5036002;28;20048;-53
2022/03/18 01:48:42;;;;;;;1.90;0.80;;;21.90;30.00;;;;;;5033214;28;20033;-47
2022/03/18 01:51:08;;;;;;;1.83;1.00;;;21.80;30.00;;;;;;5035390;28;20105;-52
2022/03/18 01:53:35;;;;;;;1.50;0.90;;;21.80;30.00;;;;;;5035867;28;20060;-49
2022/03/18 01:56:01;;;;;;;2.13;0.82;;;21.80;30.00;;;;;;5035102;28;20029;-48
2022/03/18 01:58:27;;;;;;;1.75;0.73;;;21.80;30.50;;;;;;5035112;28;20352;-52
2022/03/18 02:00:54;;;;;;;2.50;0.93;;;21.80;30.00;;;;;;5035349;28;20021;-46
2022/03/18 02:03:21;;;;;;;1.33;0.50;;;21.80;30.00;;;;;;5035606;28;20029;-47
2022/03/18 02:05:48;;;;;;;1.40;0.77;;;21.80;30.00;;;;;;5048436;28;20095;-48
2022/03/18 02:08:16;;;;;;;1.92;0.73;;;21.80;30.00;;;;;;5044224;28;20021;-52
2022/03/18 02:10:43;;;;;;;1.08;0.80;;;21.80;30.00;;;;;;5035540;28;20041;-51
2022/03/18 02:13:09;;;;;;;1.50;0.55;;;21.80;30.00;;;;;;5040866;28;20029;-49
2022/03/18 02:15:34;;;;;;;1.17;0.70;;;21.80;29.90;;;;;;5046451;28;20055;-48
2022/03/18 02:18:00;;;;;;;1.58;0.90;;;21.80;29.90;;;;;;5041899;28;20028;-51
2022/03/18 02:20:26;;;;;;;1.48;0.80;;;21.80;29.90;;;;;;5050298;28;20440;-48
2022/03/18 02:22:52;;;;;;;1.98;0.80;;;21.80;29.90;;;;;;5042644;28;20041;-47
2022/03/18 02:25:18;;;;;;;1.25;0.75;;;21.80;29.90;;;;;;5053561;28;20029;-48
2022/03/18 02:28:01;;;;;;;1.70;0.80;;;21.80;29.90;;;;;;5036993;28;20032;-47
2022/03/18 02:30:30;;;;;;;1.85;0.90;;;21.80;29.90;;;;;;5034923;28;20059;-49
2022/03/18 02:32:57;;;;;;;1.88;0.60;;;21.80;30.00;;;;;;5039516;28;20040;-47
2022/03/18 02:35:22;;;;;;;2.03;0.80;;;21.80;30.00;;;;;;5051978;28;20025;-47
2022/03/18 02:37:48;;;;;;;2.88;0.90;;;21.80;29.90;;;;;;5046250;28;20017;-47
2022/03/18 02:40:15;;;;;;;1.45;0.70;;;21.80;30.00;;;;;;5045917;28;20357;-47
2022/03/18 02:42:42;;;;;;;1.15;0.77;;;21.80;30.00;;;;;;5037434;28;20052;-46
2022/03/18 02:45:08;;;;;;;1.45;0.80;;;21.70;29.90;;;;;;5037285;28;20029;-49
2022/03/18 02:47:34;;;;;;;1.77;0.85;;;21.70;29.90;;;;;;5034377;28;20094;-51
2022/03/18 02:50:00;;;;;;;1.75;0.70;;;21.70;29.90;;;;;;5017066;28;20046;-48
2022/03/18 02:52:26;;;;;;;1.67;0.77;;;21.70;29.90;;;;;;5044356;28;20040;-47
2022/03/18 02:54:52;;;;;;;1.50;0.80;;;21.70;29.90;;;;;;5036730;28;20036;-46
2022/03/18 02:57:18;;;;;;;1.35;0.60;;;21.70;30.00;;;;;;5036775;28;20387;-46
2022/03/18 02:59:44;;;;;;;3.10;0.60;;;21.70;30.00;;;;;;5032936;28;20033;-46
2022/03/18 03:02:12;;;;;;;1.10;0.60;;;21.70;30.00;;;;;;5044498;28;20091;-46
2022/03/18 03:07:58;;;;;;;1.02;0.47;;;21.70;30.00;;;;;;5053087;28;20383;-47
2022/03/18 03:10:08;;;;;;;1.10;0.60;;;21.70;30.00;;;;;;5047126;28;20028;-47
2022/03/18 03:12:34;;;;;;;1.10;0.60;;;21.70;30.00;;;;;;5043349;28;20017;-50
2022/03/18 03:15:00;;;;;;;1.23;0.60;;;21.70;30.50;;;;;;5038535;28;20361;-46
2022/03/18 03:17:26;;;;;;;2.03;0.77;;;21.70;30.00;;;;;;5039838;28;20025;-47
2022/03/18 03:19:54;;;;;;;1.35;0.60;;;21.70;30.00;;;;;;5051541;28;20033;-48
2022/03/18 03:22:19;;;;;;;1.23;0.63;;;21.70;30.00;;;;;;5039843;28;20033;-49
2022/03/18 03:24:47;;;;;;;2.13;0.80;;;21.70;30.00;;;;;;5052511;28;20029;-46
2022/03/18 03:27:13;;;;;;;1.60;0.60;;;21.70;30.00;;;;;;5042963;28;20013;-51
2022/03/18 03:29:39;;;;;;;1.42;0.77;;;21.70;30.00;;;;;;5041088;28;20037;-48
2022/03/18 03:32:05;;;;;;;1.40;0.60;;;21.70;30.00;;;;;;5050189;28;20420;-46
2022/03/18 03:34:32;;;;;;;2.90;0.80;;;21.70;30.00;;;;;;5033260;28;20032;-51
2022/03/18 03:36:59;;;;;;;2.03;0.65;;;21.70;30.00;;;;;;5049445;28;20025;-48
2022/03/18 03:39:24;;;;;;;1.05;0.50;;;21.70;30.00;;;;;;5039778;28;20040;-47
2022/03/18 03:41:50;;;;;;;1.48;0.60;;;21.70;30.00;;;;;;5033532;28;20036;-47
2022/03/18 03:44:16;;;;;;;1.20;0.50;;;21.70;30.00;;;;;;5039054;28;20024;-45
2022/03/18 03:46:42;;;;;;;1.30;0.65;;;21.70;30.00;;;;;;5036270;28;20452;-47
2022/03/18 03:49:09;;;;;;;1.10;0.60;;;21.70;30.00;;;;;;5033773;28;20032;-47
2022/03/18 03:51:35;;;;;;;1.27;0.70;;;21.70;30.00;;;;;;5033094;28;20025;-53
2022/03/18 03:54:01;;;;;;;1.35;0.80;;;21.60;30.00;;;;;;5038589;28;20024;-49
2022/03/18 03:56:27;;;;;;;1.48;0.60;;;21.60;30.00;;;;;;5034122;28;20052;-50
2022/03/18 03:58:52;;;;;;;0.80;0.43;;;21.70;30.00;;;;;;5033781;28;20056;-49
2022/03/18 04:01:18;;;;;;;0.95;0.60;;;21.70;30.00;;;;;;5043452;28;20033;-51
2022/03/18 04:03:45;;;;;;;0.68;0.40;;;21.60;30.00;;;;;;5045848;28;20399;-46
2022/03/18 04:06:11;;;;;;;1.15;0.57;;;21.60;30.00;;;;;;5033664;28;20018;-45
2022/03/18 04:08:37;;;;;;;1.60;0.70;;;21.60;30.00;;;;;;5048657;28;20035;-49
2022/03/18 04:11:03;;;;;;;1.33;0.52;;;21.60;29.90;;;;;;5052281;28;20476;-49
2022/03/18 04:13:28;;;;;;;1.33;0.52;;;21.60;29.90;;;;;;5048062;28;20044;-49
2022/03/18 04:15:55;;;;;;;2.00;0.70;;;21.60;30.00;;;;;;5044108;28;20016;-45
2022/03/18 04:18:21;;;;;;;2.25;0.75;;;21.60;30.00;;;;;;5050036;28;20090;-48
2022/03/18 04:20:47;;;;;;;2.20;0.80;;;21.60;30.00;;;;;;5046504;28;20476;-47
2022/03/18 04:23:12;;;;;;;0.90;0.60;;;21.60;30.00;;;;;;5041558;28;20124;-49
2022/03/18 04:25:40;;;;;;;1.25;0.60;;;21.60;30.00;;;;;;5051150;28;20017;-46
2022/03/18 04:28:06;;;;;;;1.15;0.68;;;21.60;30.00;;;;;;5044437;28;20027;-46
2022/03/18 04:30:32;;;;;;;1.98;0.50;;;21.60;30.00;;;;;;5050951;28;20036;-46
2022/03/18 04:32:57;;;;;;;1.73;0.88;;;21.60;30.00;;;;;;5042292;28;20029;-54
2022/03/18 04:35:24;;;;;;;1.25;0.52;;;21.60;30.00;;;;;;5035381;28;20108;-46
2022/03/18 04:37:50;;;;;;;1.58;0.60;;;21.60;30.00;;;;;;5046485;28;20013;-49
2022/03/18 04:40:16;;;;;;;2.10;0.70;;;21.60;30.00;;;;;;5041523;28;20527;-49
2022/03/18 04:42:42;;;;;;;1.23;0.63;;;21.50;29.90;;;;;;5040115;28;20118;-51
2022/03/18 04:45:09;;;;;;;1.48;0.60;;;21.50;29.90;;;;;;5032986;28;20021;-48
2022/03/18 04:47:35;;;;;;;0.90;0.60;;;21.50;30.00;;;;;;5038563;28;20470;-47
2022/03/18 04:50:02;;;;;;;1.33;0.63;;;21.50;29.90;;;;;;5048217;28;20486;-47
2022/03/18 04:52:28;;;;;;;1.27;0.45;;;21.50;29.90;;;;;;5044587;28;20032;-48
2022/03/18 04:54:54;;;;;;;1.08;0.60;;;21.50;29.90;;;;;;5047726;28;20032;-47
2022/03/18 04:57:20;;;;;;;1.30;0.70;;;21.50;29.90;;;;;;5051957;28;20021;-50
2022/03/18 04:59:47;;;;;;;1.25;0.50;;;21.50;29.90;;;;;;5046585;28;20112;-48
2022/03/18 05:02:15;;;;;;;0.82;0.50;;;21.50;29.90;;;;;;5034774;28;20060;-48
2022/03/18 05:04:42;;;;;;;1.85;0.70;;;21.50;29.90;;;;;;5035189;28;20036;-52
2022/03/18 05:07:09;;;;;;;0.93;0.60;;;21.50;29.90;;;;;;5055584;28;20021;-48
2022/03/18 05:09:34;;;;;;;2.05;0.80;;;21.50;29.90;;;;;;5047545;28;20025;-47
2022/03/18 05:12:00;;;;;;;0.73;0.50;;;21.50;29.90;;;;;;5036257;28;20039;-46
2022/03/18 05:14:26;;;;;;;1.00;0.50;;;21.50;29.90;;;;;;5045192;28;20349;-49
2022/03/18 05:16:52;;;;;;;0.88;0.43;;;21.50;29.90;;;;;;5041753;28;20021;-46
2022/03/18 05:19:18;;;;;;;1.13;0.52;;;21.50;29.90;;;;;;5040868;28;20033;-45
2022/03/18 05:21:44;;;;;;;1.35;0.70;;;21.50;29.90;;;;;;5040231;28;20059;-50
2022/03/18 05:24:10;;;;;;;1.00;0.50;;;21.40;29.90;;;;;;5050442;28;20086;-48
2022/03/18 05:26:37;;;;;;;0.85;0.50;;;21.40;29.90;;;;;;5054704;28;20021;-50
2022/03/18 05:29:03;;;;;;;1.08;0.65;;;21.40;29.90;;;;;;5039296;28;20380;-48
2022/03/18 05:31:31;;;;;;;1.35;0.60;;;21.40;29.90;;;;;;5037854;28;20036;-49
2022/03/18 05:33:58;;;;;;;1.10;0.60;;;21.50;29.90;;;;;;5040124;28;20407;-48
2022/03/18 05:36:23;;;;;;;1.48;0.50;;;21.50;29.90;;;;;;5043185;28;20040;-49
2022/03/18 05:38:49;;;;;;;2.17;0.70;;;21.50;29.90;;;;;;5046128;28;20016;-51
2022/03/18 05:41:15;;;;;;;1.85;0.63;;;21.40;29.90;;;;;;5038039;28;20632;-50
2022/03/18 05:43:41;;;;;;;1.70;0.70;;;21.40;29.90;;;;;;5050908;28;20061;-49
2022/03/18 05:46:07;;;;;;;1.42;0.60;;;21.40;29.90;;;;;;5037130;28;20028;-46
2022/03/18 05:48:33;;;;;;;1.38;0.55;;;21.40;29.90;;;;;;5051341;28;20071;-48
2022/03/18 05:51:00;;;;;;;1.73;0.63;;;21.40;29.90;;;;;;5042320;28;20045;-49
2022/03/18 05:53:27;;;;;;;0.73;0.50;;;21.40;29.90;;;;;;5050785;28;20025;-49
2022/03/18 05:58:38;;;;;;;1.23;0.60;;;21.40;29.90;;;;;;5043338;28;20112;-47
2022/03/18 06:01:04;;;;;;;1.27;0.60;;;21.40;29.90;;;;;;5054370;28;20159;-46
2022/03/18 06:03:29;;;;;;;1.48;0.43;;;21.40;29.90;;;;;;5040205;28;20460;-48
2022/03/18 06:05:55;;;;;;;0.90;0.60;;;21.40;29.90;;;;;;5032595;28;20064;-46
2022/03/18 06:13:49;;;;;;;1.20;0.73;;;21.40;29.90;;;;;;5034413;28;20042;-48
2022/03/18 06:16:15;;;;;;;1.35;0.75;;;21.40;29.90;;;;;;5034465;28;20017;-45
2022/03/18 06:18:41;;;;;;;1.45;0.65;;;21.40;29.90;;;;;;5034634;28;20048;-49
2022/03/18 06:21:08;;;;;;;1.42;0.60;;;21.40;29.90;;;;;;5032270;28;20025;-46
2022/03/18 06:23:37;;;;;;;1.40;0.68;;;21.40;29.90;;;;;;5015201;28;20104;-50
2022/03/18 06:26:03;;;;;;;1.65;0.57;;;21.40;29.90;;;;;;5016367;28;20030;-51
2022/03/18 06:28:30;;;;;;;3.15;0.55;;;21.40;29.90;;;;;;5022969;28;20109;-51
2022/03/18 06:30:57;;;;;;;0.90;0.52;;;21.40;29.90;;;;;;5027108;28;20103;-49
2022/03/18 06:33:23;;;;;;;1.27;0.50;;;21.40;29.90;;;;;;5025647;28;20030;-47
2022/03/18 06:35:48;;;;;;;1.48;0.63;;;21.40;29.90;;;;;;5026351;28;20476;-47
2022/03/18 06:38:14;;;;;;;3.55;0.93;;;21.40;29.90;;;;;;5034096;28;20124;-50
2022/03/18 06:40:40;;;;;;;1.40;0.45;;;21.40;29.90;;;;;;5020713;28;20431;-48
2022/03/18 06:43:07;;;;;;;1.98;0.60;;;21.40;29.90;;;;;;5014711;28;20441;-50
2022/03/18 06:45:32;;;;;;;1.00;0.60;;;21.30;29.80;;;;;;5016546;28;20022;-49
2022/03/18 06:47:58;;;;;;;0.95;0.40;;;21.30;29.80;;;;;;5015190;28;20084;-47
2022/03/18 06:50:25;;;;;;;1.98;0.88;;;21.30;29.80;;;;;;5022726;28;20388;-47
2022/03/18 06:52:51;;;;;;;1.60;0.73;;;21.30;29.80;;;;;;5018379;28;20021;-47
2022/03/18 06:55:17;;;;;;;2.05;0.57;;;21.30;29.80;;;;;;5017313;28;20049;-48
2022/03/18 06:57:43;;;;;;;1.15;0.52;;;21.30;29.80;;;;;;5017755;28;20393;-50
2022/03/18 07:00:10;;;;;;;4.38;0.80;;;21.30;29.80;;;;;;5019121;28;20018;-52
2022/03/18 07:02:37;;;;;;;2.10;0.88;;;21.30;29.80;;;;;;5028354;28;20042;-53
2022/03/18 07:05:05;;;;;;;2.88;0.70;;;21.30;29.80;;;;;;5024546;28;20337;-50
2022/03/18 07:07:31;;;;;;;0.93;0.60;;;21.30;29.80;;;;;;5019058;28;20027;-50
2022/03/18 07:09:57;;;;;;;1.98;0.70;;;21.30;29.90;;;;;;5014554;28;20089;-47
2022/03/18 07:12:23;;;;;;;1.90;0.80;;;21.30;29.90;;;;;;5021319;28;20099;-48
2022/03/18 07:14:49;;;;;;;1.42;0.60;;;21.30;29.90;;;;;;5021254;28;20025;-51
2022/03/18 07:20:01;;;;;;;1.45;0.57;;;21.30;29.90;;;;;;5019528;28;20025;-49
2022/03/18 07:22:27;;;;;;;1.98;0.90;;;21.30;29.90;;;;;;5037523;28;20057;-47
2022/03/18 07:24:53;;;;;;;2.20;1.00;;;21.30;29.90;;;;;;5036787;28;20121;-49
2022/03/18 07:27:19;;;;;;;2.03;0.88;;;21.30;30.00;;;;;;5052147;28;20037;-54
2022/03/18 07:29:44;;;;;;;1.75;0.90;;;21.20;29.90;;;;;;5041466;28;20127;-49
2022/03/18 07:32:10;;;;;;;2.28;1.08;;;21.20;30.00;;;;;;5044036;28;20029;-51
2022/03/18 07:34:36;;;;;;;1.98;0.90;;;21.20;30.00;;;;;;5045819;28;20033;-49
2022/03/18 07:37:02;;;;;;;2.45;0.93;;;21.20;30.00;;;;;;5041850;28;20029;-49
2022/03/18 07:39:27;;;;;;;1.80;0.70;;;21.20;29.90;;;;;;5039382;28;20156;-53
2022/03/18 07:41:53;;;;;;;1.25;0.70;;;21.20;29.80;;;;;;5036067;28;20021;-50
2022/03/18 07:44:19;;;;;;;2.40;1.00;;;21.10;29.80;;;;;;5033261;28;20072;-46
2022/03/18 07:46:45;;;;;;;2.10;1.00;;;21.00;29.90;;;;;;5044719;28;20025;-49
2022/03/18 07:49:11;;;;;;;2.03;1.10;;;21.00;29.90;;;;;;5044285;28;20033;-52
2022/03/18 07:51:37;;;;;;;2.90;0.90;;;21.00;30.00;;;;;;5035558;28;20075;-49
2022/03/18 07:54:03;;;;;;;3.28;1.08;;;21.00;30.00;;;;;;5032565;28;20040;-49
2022/03/18 07:56:30;;;;;;;2.25;0.90;;;21.00;30.00;;;;;;5037876;28;20026;-47
2022/03/18 07:58:56;;;;;;;2.05;0.90;;;21.00;30.00;;;;;;5040718;28;20037;-53
2022/03/18 08:01:22;;;;;;;2.33;0.90;;;21.00;30.00;;;;;;5044195;28;20106;-48
2022/03/18 08:03:47;;;;;;;2.47;1.02;;;21.00;30.50;;;;;;5041602;28;20418;-50
2022/03/18 08:06:13;;;;;;;2.95;1.05;;;21.10;30.00;;;;;;5036925;28;20079;-51
2022/03/18 08:08:40;;;;;;;2.28;1.00;;;21.10;30.00;;;;;;5034422;28;20037;-51
2022/03/18 08:11:10;;;;;;;1.73;0.95;;;21.10;30.10;;;;;;5035073;28;20033;-46
2022/03/18 08:13:37;;;;;;;3.60;1.17;;;21.10;30.10;;;;;;5033686;28;20036;-50
2022/03/18 08:16:04;;;;;;;3.58;1.10;;;21.10;30.00;;;;;;5034724;28;20096;-51
2022/03/18 08:18:31;;;;;;;3.15;1.35;;;21.10;30.10;;;;;;5031460;28;20448;-49
2022/03/18 08:20:57;;;;;;;1.90;1.20;;;21.10;30.10;;;;;;5034588;28;20022;-45
2022/03/18 08:23:27;;;;;;;3.05;1.00;;;21.10;30.10;;;;;;5034495;28;20060;-46
2022/03/18 08:25:55;;;;;;;2.38;1.10;;;21.10;30.10;;;;;;5034897;28;20052;-45
2022/03/18 08:28:21;;;;;;;2.10;0.75;;;21.10;30.10;;;;;;5034879;28;20111;-47
2022/03/18 08:30:47;;;;;;;3.35;1.33;;;21.10;30.10;;;;;;5034378;28;20029;-46
2022/03/18 08:33:19;;;;;;;4.38;1.10;;;21.10;30.10;;;;;;5033285;28;20032;-47
2022/03/18 08:35:48;;;;;;;2.17;1.17;;;21.10;30.10;;;;;;5034313;28;20014;-49
2022/03/18 08:38:14;;;;;;;2.92;1.17;;;21.10;30.10;;;;;;5033992;28;20037;-44
2022/03/18 08:40:39;;;;;;;3.38;1.30;;;21.10;30.10;;;;;;5019517;28;20029;-45
2022/03/18 08:43:08;;;;;;;1.75;0.90;;;21.10;30.10;;;;;;5036742;28;20033;-44
2022/03/18 08:45:34;;;;;;;2.22;1.08;;;21.10;30.10;;;;;;5036922;28;20029;-47
2022/03/18 08:48:00;;;;;;;4.18;1.45;;;21.10;30.10;;;;;;5036411;28;20037;-47
2022/03/18 08:50:26;;;;;;;3.85;1.20;;;21.10;30.10;;;;;;5036549;28;20021;-48
2022/03/18 08:52:54;;;;;;;2.03;1.13;;;21.10;30.10;;;;;;5036925;28;20034;-44
2022/03/18 08:55:21;;;;;;;1.50;0.80;;;21.10;30.10;;;;;;5036024;28;20045;-47
2022/03/18 08:57:47;;;;;;;2.95;1.05;;;21.10;30.20;;;;;;5037316;28;20029;-46
2022/03/18 09:00:15;;;;;;;3.03;1.10;;;21.10;30.10;;;;;;5037593;28;20029;-47
2022/03/18 09:02:42;;;;;;;2.58;1.13;;;21.10;30.00;;;;;;5038442;28;20403;-45
2022/03/18 09:05:10;;;;;;;2.15;0.90;;;21.10;30.00;;;;;;5037761;28;20030;-48
2022/03/18 09:07:37;;;;;;;2.38;1.20;;;21.10;30.00;;;;;;5037531;28;20057;-50
2022/03/18 09:10:04;;;;;;;2.40;1.08;;;21.10;30.00;;;;;;5038018;28;20029;-46
2022/03/18 09:12:30;;;;;;;2.72;1.17;;;21.10;30.00;;;;;;5035173;28;20072;-45
2022/03/18 09:14:58;;;;;;;2.17;0.95;;;21.10;30.00;;;;;;5037465;28;20366;-48
2022/03/18 09:17:24;;;;;;;1.80;0.90;;;21.10;30.00;;;;;;5037834;28;20109;-46
2022/03/18 09:19:50;;;;;;;3.60;1.08;;;21.10;30.00;;;;;;5036995;28;20037;-46
2022/03/18 09:22:17;;;;;;;1.95;0.85;;;21.10;30.00;;;;;;5037084;28;20172;-44
2022/03/18 09:24:44;;;;;;;2.33;1.10;;;21.10;30.00;;;;;;5037134;28;20452;-48
2022/03/18 09:27:10;;;;;;;1.95;0.88;;;21.10;30.00;;;;;;5035726;28;20025;-47
2022/03/18 09:29:36;;;;;;;2.35;1.00;;;21.10;30.00;;;;;;5037344;28;20033;-46
2022/03/18 09:32:04;;;;;;;2.10;1.08;;;21.10;30.00;;;;;;5037386;28;20450;-49
2022/03/18 09:34:29;;;;;;;2.65;1.42;;;21.10;30.00;;;;;;5036878;28;20051;-49
2022/03/18 09:36:57;;;;;;;2.58;0.98;;;21.10;29.90;;;;;;5036629;28;20425;-45
2022/03/18 09:39:24;;;;;;;3.05;1.30;;;21.10;30.00;;;;;;5037473;28;20439;-45
2022/03/18 09:41:51;;;;;;;1.58;0.80;;;21.10;30.00;;;;;;5037222;28;20053;-45
2022/03/18 09:44:17;;;;;;;1.65;0.90;;;21.20;30.00;;;;;;5037609;28;20044;-44
2022/03/18 09:46:47;;;;;;;2.20;0.88;;;21.10;30.00;;;;;;5036968;28;20037;-46
2022/03/18 09:49:18;;;;;;;1.98;1.02;;;21.00;30.00;;;;;;5034674;28;20488;-46
2022/03/18 09:51:45;;;;;;;1.92;0.90;;;21.00;30.00;;;;;;5035737;28;20018;-48
2022/03/18 09:54:25;;;;;;;1.45;0.75;;;21.00;30.00;;;;;;5017531;28;20029;-46
2022/03/18 09:56:51;;;;;;;2.30;0.90;;;21.00;30.00;;;;;;5034581;28;20021;-45
2022/03/18 09:59:17;;;;;;;1.38;0.70;;;21.00;30.00;;;;;;5037767;28;20025;-47
2022/03/18 10:01:43;;;;;;;2.55;0.88;;;21.00;30.00;;;;;;5036563;28;20021;-47
2022/03/18 10:04:10;;;;;;;3.25;0.90;;;21.00;30.00;;;;;;5037585;28;20322;-45
2022/03/18 10:06:38;;;;;;;1.80;0.70;;;21.00;30.00;;;;;;5036404;28;20032;-53
2022/03/18 10:09:05;;;;;;;1.63;0.73;;;21.00;30.00;;;;;;5036170;28;20051;-45
2022/03/18 10:11:34;;;;;;;1.83;0.88;;;21.10;30.00;;;;;;5035486;28;20017;-52
2022/03/18 10:14:08;;;;;;;1.58;0.93;;;21.10;30.00;;;;;;5036283;28;20349;-45
2022/03/18 10:16:36;;;;;;;2.03;0.90;;;21.10;30.00;;;;;;5036935;28;20104;-51
2022/03/18 10:19:04;;;;;;;2.58;1.00;;;21.10;30.00;;;;;;5036332;28;20029;-49
2022/03/18 10:21:31;;;;;;;1.77;0.70;;;21.10;30.00;;;;;;5036364;28;20068;-47
2022/03/18 10:24:08;;;;;;;1.45;0.68;;;21.10;30.00;;;;;;5036299;28;20480;-44
2022/03/18 10:26:38;;;;;;;3.78;1.05;;;21.20;30.00;;;;;;5036724;28;20096;-49
2022/03/18 10:29:05;;;;;;;2.50;1.02;;;21.30;30.00;;;;;;5036650;28;20025;-50
2022/03/18 10:31:31;;;;;;;1.85;1.00;;;21.30;30.00;;;;;;5035938;28;20022;-44
2022/03/18 10:37:06;;;;;;;3.08;0.80;;;21.50;30.20;;;;;;5033155;28;20144;-48
2022/03/18 10:39:50;;;;;;;2.05;0.85;;;21.70;30.20;;;;;;5032614;28;20087;-55
2022/03/18 10:42:20;;;;;;;3.13;0.95;;;21.70;30.20;;;;;;5036012;28;20666;-51
2022/03/18 10:44:55;;;;;;;1.50;0.75;;;21.80;30.30;;;;;;5018170;28;20025;-49
2022/03/18 10:47:29;;;;;;;1.35;0.70;;;21.90;30.30;;;;;;5035978;28;20052;-52
2022/03/18 10:50:16;;;;;;;3.72;1.08;;;21.90;30.20;;;;;;5030995;28;20025;-54
2022/03/18 10:52:46;;;;;;;1.17;0.50;;;21.90;30.20;;;;;;5034993;28;20024;-51
2022/03/18 10:55:34;;;;;;;1.20;0.63;;;22.00;30.30;;;;;;5034717;28;20092;-48
2022/03/18 10:58:17;;;;;;;2.30;0.82;;;22.10;30.40;;;;;;5034748;28;20357;-49
2022/03/18 11:00:50;;;;;;;1.50;0.70;;;22.10;30.30;;;;;;5034461;28;20021;-48
2022/03/18 11:03:16;;;;;;;2.35;0.70;;;22.10;30.30;;;;;;5034160;28;20125;-51
2022/03/18 11:05:45;;;;;;;3.67;1.00;;;22.10;30.30;;;;;;5035228;28;20033;-51
2022/03/18 11:08:21;;;;;;;2.60;0.82;;;22.10;30.30;;;;;;5035315;28;20017;-46
2022/03/18 11:11:07;;;;;;;1.70;0.80;;;22.10;30.40;;;;;;5034164;28;20827;-53
2022/03/18 11:13:51;;;;;;;1.45;0.88;;;22.10;30.40;;;;;;5031406;28;20030;-58
2022/03/18 11:16:31;;;;;;;1.50;0.60;;;22.10;31.10;;;;;;5020700;28;20060;-55
2022/03/18 11:18:58;;;;;;;1.10;0.55;;;22.10;30.40;;;;;;5035280;28;20147;-55
2022/03/18 11:21:35;;;;;;;1.65;0.60;;;22.10;30.40;;;;;;5034566;28;20032;-52
2022/03/18 11:24:03;;;;;;;1.52;0.63;;;22.20;30.40;;;;;;5035590;28;20035;-48
2022/03/18 11:26:31;;;;;;;1.55;0.50;;;22.20;30.40;;;;;;5034242;28;20087;-48
2022/03/18 11:29:07;;;;;;;1.40;0.50;;;22.30;30.50;;;;;;5034701;28;20025;-51
2022/03/18 11:31:33;;;;;;;1.55;0.60;;;22.40;30.60;;;;;;5034480;28;20477;-48
2022/03/18 11:34:09;;;;;;;4.45;0.93;;;22.50;30.60;;;;;;5035359;28;20061;-48
2022/03/18 11:36:44;;;;;;;1.85;0.70;;;22.50;30.60;;;;;;5031826;28;20034;-52
2022/03/18 11:39:09;;;;;;;1.30;0.52;;;22.60;30.70;;;;;;5029918;28;20096;-50
2022/03/18 11:41:49;;;;;;;1.70;0.50;;;22.60;30.60;;;;;;5034930;28;20064;-49
2022/03/18 11:44:36;;;;;;;1.48;0.50;;;22.70;30.70;;;;;;5034373;28;20046;-50
2022/03/18 11:47:29;;;;;;;6.93;0.93;;;22.80;30.70;;;;;;5034048;28;20458;-55
2022/03/18 11:49:55;;;;;;;1.92;0.70;;;22.90;30.70;;;;;;5035293;28;20087;-51
2022/03/18 11:52:21;;;;;;;1.30;0.60;;;22.90;30.70;;;;;;5034694;28;20029;-49
2022/03/18 11:55:10;;;;;;;1.17;0.52;;;23.00;30.80;;;;;;5034562;28;20026;-47
2022/03/18 11:57:45;;;;;;;1.02;0.60;;;23.00;30.70;;;;;;5013762;28;20388;-52
2022/03/18 12:00:29;;;;;;;2.70;0.73;;;23.00;30.70;;;;;;5034673;28;20049;-50
2022/03/18 12:02:55;;;;;;;1.20;1.00;;;23.10;30.60;;;;;;5032853;28;20045;-52
2022/03/18 12:05:28;;;;;;;2.20;0.73;;;23.10;30.60;;;;;;5034760;28;20387;-50
2022/03/18 12:07:54;;;;;;;1.35;0.50;;;23.00;30.60;;;;;;5035171;28;20112;-47
2022/03/18 12:10:39;;;;;;;2.05;0.90;;;23.00;30.60;;;;;;5035251;28;20048;-51
2022/03/18 12:13:05;;;;;;;1.30;0.50;;;22.90;30.50;;;;;;5034597;28;20041;-50
2022/03/18 12:15:39;;;;;;;1.10;0.50;;;22.90;30.60;;;;;;5035258;28;20040;-51
2022/03/18 12:18:06;;;;;;;0.77;0.50;;;22.80;30.50;;;;;;5035453;28;20033;-48
2022/03/18 12:20:34;;;;;;;1.90;0.65;;;22.70;30.50;;;;;;5034585;28;20034;-52
2022/03/18 12:23:07;;;;;;;1.35;0.60;;;22.70;30.40;;;;;;5034840;28;20053;-48
2022/03/18 12:25:36;;;;;;;1.38;0.50;;;22.60;30.40;;;;;;5035066;28;20408;-47
2022/03/18 12:28:03;;;;;;;1.08;0.65;;;22.60;30.40;;;;;;5035081;28;20488;-49
2022/03/18 12:30:30;;;;;;;1.52;0.73;;;22.60;30.40;;;;;;5032204;28;20398;-50
2022/03/18 12:33:00;;;;;;;1.48;0.55;;;22.50;30.40;;;;;;5034387;28;20032;-49
2022/03/18 12:35:35;;;;;;;1.15;0.40;;;22.50;30.40;;;;;;5034754;28;20040;-53
2022/03/18 12:38:07;;;;;;;1.60;0.47;;;22.50;30.40;;;;;;5031244;28;20460;-46
2022/03/18 12:40:37;;;;;;;1.40;0.63;;;22.40;30.30;;;;;;5034511;28;20105;-50
2022/03/18 12:43:03;;;;;;;1.58;0.75;;;22.40;30.30;;;;;;5033258;28;20036;-50
2022/03/18 12:45:37;;;;;;;1.65;0.77;;;22.40;30.30;;;;;;5034635;28;20033;-51
2022/03/18 12:48:08;;;;;;;1.52;0.73;;;22.30;30.30;;;;;;5034765;28;20095;-48
2022/03/18 12:50:36;;;;;;;1.05;0.70;;;22.30;30.30;;;;;;5034528;28;20030;-47
2022/03/18 12:53:14;;;;;;;1.65;0.50;;;22.30;30.30;;;;;;5034729;28;20104;-48
2022/03/18 12:55:42;;;;;;;2.25;0.52;;;22.20;30.20;;;;;;5034545;28;20116;-52
2022/03/18 12:58:35;;;;;;;1.40;0.60;;;22.20;30.30;;;;;;5006368;28;20037;-50
2022/03/18 13:01:01;;;;;;;1.08;0.43;;;22.20;30.30;;;;;;5032925;28;20028;-51
2022/03/18 13:03:29;;;;;;;1.10;0.47;;;22.20;30.30;;;;;;5032703;28;20038;-51
2022/03/18 13:06:04;;;;;;;1.83;0.70;;;22.20;30.30;;;;;;5034004;28;20079;-47
2022/03/18 13:08:34;;;;;;;0.90;0.60;;;22.20;30.50;;;;;;5033269;28;20021;-47
2022/03/18 13:11:03;;;;;;;1.48;0.60;;;22.20;30.70;;;;;;5033365;28;20029;-52